createdAt,value
2019-06-10T00:01:11.832Z,13.40
2019-06-10T00:03:41.803Z,13.40
2019-06-10T00:06:11.559Z,13.30
2019-06-10T00:08:41.238Z,13.20
2019-06-10T00:11:11.694Z,13.10
2019-06-10T00:13:41.462Z,13.20
2019-06-10T00:16:11.454Z,13.00
2019-06-10T00:18:43.123Z,12.90
2019-06-10T00:21:11.257Z,12.90
2019-06-10T00:23:41.225Z,12.80
2019-06-10T00:26:12.404Z,12.80
2019-06-10T00:28:40.704Z,12.80
2019-06-10T00:31:11.474Z,12.80
2019-06-10T00:33:41.423Z,12.70
2019-06-10T00:36:13.469Z,12.70
2019-06-10T00:38:41.153Z,12.60
2019-06-10T00:41:13.839Z,12.60
2019-06-10T00:43:41.155Z,12.60
2019-06-10T00:46:13.062Z,12.70
2019-06-10T00:48:41.051Z,12.60
2019-06-10T00:51:13.029Z,12.60
2019-06-10T00:53:42.316Z,12.70
2019-06-10T00:56:14.170Z,12.80
2019-06-10T00:58:41.439Z,12.90
2019-06-10T01:01:13.971Z,12.80
2019-06-10T01:03:41.520Z,12.90
2019-06-10T01:06:14.650Z,12.90
2019-06-10T01:08:40.807Z,12.90
2019-06-10T01:11:12.516Z,13.00
2019-06-10T01:13:41.363Z,12.90
2019-06-10T01:16:12.541Z,12.80
2019-06-10T01:18:41.627Z,12.80
2019-06-10T01:21:12.169Z,12.60
2019-06-10T01:23:41.638Z,12.50
2019-06-10T01:26:13.012Z,12.50
2019-06-10T01:28:41.086Z,12.30
2019-06-10T01:31:13.131Z,12.30
2019-06-10T01:33:41.124Z,12.30
2019-06-10T01:36:12.662Z,12.30
2019-06-10T01:38:40.962Z,12.30
2019-06-10T01:41:12.056Z,12.30
2019-06-10T01:43:40.778Z,12.30
2019-06-10T01:46:12.619Z,12.40
2019-06-10T01:48:45.045Z,12.40
2019-06-10T01:51:13.453Z,12.40
2019-06-10T01:53:42.485Z,12.50
2019-06-10T01:56:12.779Z,12.60
2019-06-10T01:58:41.645Z,12.70
2019-06-10T02:01:23.454Z,12.80
2019-06-10T02:03:51.933Z,12.90
2019-06-10T02:06:25.311Z,13.00
2019-06-10T02:08:52.781Z,13.00
2019-06-10T02:11:23.491Z,13.00
2019-06-10T02:13:51.877Z,13.10
2019-06-10T02:16:23.909Z,13.00
2019-06-10T02:19:00.267Z,13.10
2019-06-10T02:21:24.263Z,13.20
2019-06-10T02:23:52.196Z,13.30
2019-06-10T02:26:23.520Z,13.30
2019-06-10T02:28:51.350Z,13.30
2019-06-10T02:31:30.035Z,13.30
2019-06-10T02:33:52.413Z,13.20
2019-06-10T02:36:28.966Z,13.10
2019-06-10T02:38:53.957Z,13.20
2019-06-10T02:41:29.520Z,13.10
2019-06-10T02:43:53.349Z,13.20
2019-06-10T02:46:30.662Z,13.20
2019-06-10T02:48:54.388Z,13.10
2019-06-10T02:51:28.652Z,13.10
2019-06-10T02:53:53.922Z,13.00
2019-06-10T02:56:28.421Z,13.10
2019-06-10T02:58:53.585Z,13.10
2019-06-10T03:01:28.336Z,13.10
2019-06-10T03:03:54.398Z,13.10
2019-06-10T03:06:29.750Z,13.30
2019-06-10T03:08:54.832Z,13.40
2019-06-10T03:11:28.070Z,13.60
2019-06-10T03:13:54.405Z,13.90
2019-06-10T03:16:25.795Z,14.30
2019-06-10T03:18:54.595Z,14.60
2019-06-10T03:21:25.651Z,14.90
2019-06-10T03:23:53.749Z,14.90
2019-06-10T03:26:25.275Z,14.90
2019-06-10T03:28:52.861Z,14.90
2019-06-10T03:31:28.349Z,14.80
2019-06-10T03:33:54.446Z,14.80
2019-06-10T03:36:23.134Z,14.80
2019-06-10T03:38:53.738Z,14.90
2019-06-10T03:41:24.667Z,14.90
2019-06-10T03:43:53.213Z,15.10
2019-06-10T03:46:24.275Z,15.10
2019-06-10T03:48:52.725Z,15.30
2019-06-10T03:51:23.931Z,15.30
2019-06-10T03:53:53.089Z,15.20
2019-06-10T03:56:23.805Z,15.20
2019-06-10T03:58:52.419Z,15.20
2019-06-10T04:01:24.339Z,15.30
2019-06-10T04:03:53.011Z,15.20
2019-06-10T04:06:24.215Z,15.40
2019-06-10T04:08:52.355Z,15.60
2019-06-10T04:11:24.081Z,15.80
2019-06-10T04:13:53.489Z,15.90
2019-06-10T04:16:24.230Z,15.90
2019-06-10T04:18:53.459Z,16.00
2019-06-10T04:21:23.697Z,16.00
2019-06-10T04:23:53.030Z,15.90
2019-06-10T04:26:24.095Z,16.00
2019-06-10T04:28:53.017Z,16.10
2019-06-10T04:31:23.788Z,16.10
2019-06-10T04:33:52.482Z,16.20
2019-06-10T04:36:24.479Z,16.10
2019-06-10T04:38:52.468Z,16.20
2019-06-10T04:41:24.336Z,16.30
2019-06-10T04:43:53.201Z,16.30
2019-06-10T04:46:23.655Z,16.20
2019-06-10T04:48:53.239Z,16.20
2019-06-10T04:51:23.893Z,16.30
2019-06-10T04:53:52.720Z,16.50
2019-06-10T04:56:24.121Z,16.50
2019-06-10T04:58:52.528Z,16.70
2019-06-10T05:01:24.101Z,16.80
2019-06-10T05:03:52.650Z,16.80
2019-06-10T05:06:23.772Z,16.90
2019-06-10T05:08:53.805Z,17.00
2019-06-10T05:11:24.212Z,17.10
2019-06-10T05:13:53.225Z,17.10
2019-06-10T05:16:25.550Z,17.20
2019-06-10T05:18:54.818Z,17.40
2019-06-10T05:21:26.677Z,17.50
2019-06-10T05:23:53.514Z,17.50
2019-06-10T05:26:24.212Z,17.50
2019-06-10T05:28:52.687Z,17.50
2019-06-10T05:31:23.247Z,17.50
2019-06-10T05:33:53.002Z,17.60
2019-06-10T05:36:25.695Z,17.90
2019-06-10T05:38:52.687Z,17.80
2019-06-10T05:41:24.200Z,17.90
2019-06-10T05:43:52.428Z,17.90
2019-06-10T05:46:22.741Z,18.00
2019-06-10T05:48:54.562Z,18.00
2019-06-10T05:51:25.851Z,18.10
2019-06-10T05:53:53.781Z,18.40
2019-06-10T05:56:23.849Z,18.50
2019-06-10T05:58:52.941Z,18.60
2019-06-10T06:01:22.904Z,18.60
2019-06-10T06:03:52.944Z,18.80
2019-06-10T06:06:22.931Z,18.80
2019-06-10T06:08:53.408Z,18.90
2019-06-10T06:11:23.113Z,18.90
2019-06-10T06:13:52.363Z,18.90
2019-06-10T06:16:23.089Z,18.90
2019-06-10T06:18:52.648Z,19.10
2019-06-10T06:21:29.153Z,19.10
2019-06-10T06:23:52.820Z,19.20
2019-06-10T06:26:23.499Z,19.20
2019-06-10T06:28:53.464Z,19.30
2019-06-10T06:31:23.225Z,19.30
2019-06-10T06:33:52.649Z,19.50
2019-06-10T06:36:22.687Z,19.60
2019-06-10T06:38:53.167Z,19.70
2019-06-10T06:41:22.642Z,19.80
2019-06-10T06:43:53.078Z,19.80
2019-06-10T06:46:23.412Z,19.90
2019-06-10T06:48:53.301Z,20.10
2019-06-10T06:51:35.701Z,20.20
2019-06-10T06:53:56.143Z,20.50
2019-06-10T06:56:23.256Z,20.70
2019-06-10T06:58:52.584Z,20.50
2019-06-10T07:01:25.548Z,20.30
2019-06-10T07:03:53.552Z,20.20
2019-06-10T07:06:23.880Z,20.40
2019-06-10T07:09:04.142Z,20.50
2019-06-10T07:11:25.149Z,20.50
2019-06-10T07:13:56.034Z,20.50
2019-06-10T07:16:24.776Z,20.70
2019-06-10T07:18:54.153Z,20.70
2019-06-10T07:21:23.111Z,20.80
2019-06-10T07:23:52.904Z,20.70
2019-06-10T07:26:22.271Z,20.80
2019-06-10T07:28:53.586Z,21.00
2019-06-10T07:31:26.962Z,21.00
2019-06-10T07:33:52.653Z,21.30
2019-06-10T07:36:23.576Z,21.30
2019-06-10T07:38:53.911Z,21.20
2019-06-10T07:41:23.214Z,21.20
2019-06-10T07:43:52.927Z,21.50
2019-06-10T07:46:22.996Z,21.50
2019-06-10T07:48:56.296Z,21.40
2019-06-10T07:51:22.800Z,21.50
2019-06-10T07:53:52.561Z,21.70
2019-06-10T07:56:23.390Z,21.50
2019-06-10T07:58:52.887Z,21.60
2019-06-10T08:01:23.027Z,21.60
2019-06-10T08:03:52.645Z,21.70
2019-06-10T08:06:22.840Z,21.70
2019-06-10T08:08:53.180Z,21.80
2019-06-10T08:11:22.955Z,21.90
2019-06-10T08:13:53.890Z,22.10
2019-06-10T08:16:23.589Z,22.10
2019-06-10T08:19:20.020Z,22.00
2019-06-10T08:21:23.130Z,22.10
2019-06-10T08:23:55.851Z,22.30
2019-06-10T08:26:24.579Z,22.40
2019-06-10T08:28:53.342Z,22.30
2019-06-10T08:31:22.604Z,22.20
2019-06-10T08:33:53.526Z,22.40
2019-06-10T08:36:22.658Z,22.50
2019-06-10T08:38:52.660Z,22.40
2019-06-10T08:41:23.110Z,22.50
2019-06-10T08:43:52.902Z,22.50
2019-06-10T08:46:22.593Z,22.70
2019-06-10T08:48:52.614Z,22.60
2019-06-10T08:51:23.643Z,22.80
2019-06-10T08:53:53.226Z,22.80
2019-06-10T08:56:22.536Z,22.80
2019-06-10T08:58:53.827Z,23.00
2019-06-10T09:01:22.298Z,22.90
2019-06-10T09:03:53.464Z,23.00
2019-06-10T09:06:23.126Z,23.20
2019-06-10T09:08:54.403Z,23.20
2019-06-10T09:11:23.693Z,23.20
2019-06-10T09:13:53.193Z,23.30
2019-06-10T09:16:22.856Z,23.40
2019-06-10T09:18:54.983Z,23.20
2019-06-10T09:21:22.441Z,23.40
2019-06-10T09:23:58.668Z,23.30
2019-06-10T09:26:22.992Z,22.90
2019-06-10T09:28:55.812Z,22.90
2019-06-10T09:31:23.753Z,23.20
2019-06-10T09:33:56.704Z,23.40
2019-06-10T09:36:23.696Z,23.10
2019-06-10T09:38:55.067Z,23.30
2019-06-10T09:41:36.109Z,23.40
2019-06-10T09:43:57.053Z,23.50
2019-06-10T09:46:25.793Z,23.40
2019-06-10T09:48:56.642Z,23.20
2019-06-10T09:51:25.652Z,23.10
2019-06-10T09:54:02.431Z,23.30
2019-06-10T09:56:24.836Z,23.60
2019-06-10T09:58:55.367Z,23.60
2019-06-10T10:01:24.758Z,23.50
2019-06-10T10:03:59.830Z,23.30
2019-06-10T10:06:24.480Z,23.50
2019-06-10T10:08:58.043Z,23.70
2019-06-10T10:11:27.609Z,23.60
2019-06-10T10:13:54.477Z,23.60
2019-06-10T10:16:23.242Z,23.90
2019-06-10T10:18:59.343Z,23.90
2019-06-10T10:21:22.441Z,23.70
2019-06-10T10:24:06.305Z,23.60
2019-06-10T10:26:21.764Z,23.90
2019-06-10T10:28:54.115Z,24.20
2019-06-10T10:31:23.082Z,24.30
2019-06-10T10:33:52.574Z,24.30
2019-06-10T10:36:22.585Z,24.30
2019-06-10T10:38:52.296Z,24.20
2019-06-10T10:41:23.987Z,24.10
2019-06-10T10:43:56.540Z,24.30
2019-06-10T10:46:23.220Z,24.50
2019-06-10T10:48:55.183Z,24.10
2019-06-10T10:51:23.087Z,24.10
2019-06-10T10:54:18.839Z,24.30
2019-06-10T10:56:22.486Z,24.10
2019-06-10T10:58:55.629Z,24.30
2019-06-10T11:01:23.563Z,24.40
2019-06-10T11:03:56.947Z,24.50
2019-06-10T11:06:23.182Z,24.50
2019-06-10T11:08:57.427Z,24.50
2019-06-10T11:11:24.090Z,24.70
2019-06-10T11:13:56.717Z,24.30
2019-06-10T11:16:23.107Z,24.40
2019-06-10T11:18:54.105Z,24.50
2019-06-10T11:21:22.828Z,24.70
2019-06-10T11:23:54.226Z,25.00
2019-06-10T11:26:22.841Z,24.90
2019-06-10T11:28:54.499Z,24.80
2019-06-10T11:31:22.918Z,24.60
2019-06-10T11:33:56.996Z,24.60
2019-06-10T11:36:22.921Z,24.80
2019-06-10T11:38:54.950Z,24.70
2019-06-10T11:41:23.733Z,24.70
2019-06-10T11:43:56.075Z,24.80
2019-06-10T11:46:23.038Z,24.90
2019-06-10T11:48:54.351Z,24.70
2019-06-10T11:51:23.418Z,24.40
2019-06-10T11:53:54.574Z,24.30
2019-06-10T11:56:22.829Z,24.40
2019-06-10T11:58:55.169Z,24.80
2019-06-10T12:01:22.842Z,24.60
2019-06-10T12:03:54.109Z,24.80
2019-06-10T12:06:22.893Z,24.70
2019-06-10T12:08:57.429Z,24.40
2019-06-10T12:11:23.045Z,24.50
2019-06-10T12:13:53.821Z,24.70
2019-06-10T12:18:54.158Z,24.90
2019-06-10T12:21:23.838Z,25.00
2019-06-10T12:23:57.022Z,25.10
2019-06-10T12:26:23.609Z,24.90
2019-06-10T12:28:54.609Z,24.90
2019-06-10T12:31:23.278Z,25.00
2019-06-10T12:33:55.354Z,25.10
2019-06-10T12:36:23.757Z,25.20
2019-06-10T12:38:56.452Z,25.20
2019-06-10T12:41:23.427Z,25.30
2019-06-10T12:43:53.078Z,25.60
2019-06-10T12:46:23.171Z,25.60
2019-06-10T12:48:54.062Z,25.40
2019-06-10T12:51:23.009Z,25.40
2019-06-10T12:53:51.743Z,25.50
2019-06-10T12:56:22.887Z,25.40
2019-06-10T12:58:54.055Z,25.20
2019-06-10T13:01:22.514Z,25.20
2019-06-10T13:03:53.652Z,25.40
2019-06-10T13:06:23.483Z,25.40
2019-06-10T13:08:56.392Z,25.30
2019-06-10T13:11:25.785Z,25.20
2019-06-10T13:13:56.119Z,25.00
2019-06-10T13:16:24.983Z,25.00
2019-06-10T13:18:53.893Z,25.10
2019-06-10T13:21:22.937Z,25.10
2019-06-10T13:23:54.113Z,25.20
2019-06-10T13:26:23.211Z,25.20
2019-06-10T13:28:52.570Z,25.00
2019-06-10T13:31:23.572Z,25.00
2019-06-10T13:33:52.958Z,25.10
2019-06-10T13:36:25.835Z,25.10
2019-06-10T13:38:53.225Z,25.20
2019-06-10T13:41:22.712Z,25.10
2019-06-10T13:43:52.857Z,25.00
2019-06-10T13:46:24.467Z,24.90
2019-06-10T13:48:52.441Z,25.00
2019-06-10T13:51:21.231Z,25.20
2019-06-10T13:53:49.956Z,25.50
2019-06-10T13:56:39.851Z,25.60
2019-06-10T13:58:49.120Z,26.10
2019-06-10T14:01:21.894Z,26.20
2019-06-10T14:03:48.233Z,26.20
2019-06-10T14:06:33.334Z,26.10
2019-06-10T14:08:47.525Z,26.10
2019-06-10T14:11:16.229Z,25.90
2019-06-10T14:13:44.974Z,25.60
2019-06-10T14:16:15.034Z,25.40
2019-06-10T14:18:43.993Z,25.10
2019-06-10T14:21:18.002Z,25.00
2019-06-10T14:23:43.136Z,24.80
2019-06-10T14:26:16.469Z,24.80
2019-06-10T14:28:44.404Z,24.80
2019-06-10T14:31:35.566Z,24.80
2019-06-10T14:33:43.190Z,24.70
2019-06-10T14:36:15.110Z,24.60
2019-06-10T14:38:42.394Z,24.70
2019-06-10T14:41:12.170Z,24.60
2019-06-10T14:43:42.362Z,24.70
2019-06-10T14:46:14.357Z,24.80
2019-06-10T14:48:42.682Z,24.90
2019-06-10T14:51:14.920Z,24.90
2019-06-10T14:54:03.130Z,24.90
2019-06-10T14:56:33.324Z,24.90
2019-06-10T14:59:02.456Z,24.80
2019-06-10T15:01:32.209Z,24.80
2019-06-10T15:04:03.001Z,24.80
2019-06-10T15:06:33.865Z,24.70
2019-06-10T15:09:01.778Z,24.80
2019-06-10T15:11:32.165Z,24.80
2019-06-10T15:14:02.823Z,24.90
2019-06-10T15:16:33.649Z,24.80
2019-06-10T15:19:12.011Z,24.80
2019-06-10T15:21:32.356Z,24.80
2019-06-10T15:24:03.013Z,24.80
2019-06-10T15:26:32.692Z,24.70
2019-06-10T15:29:02.730Z,24.60
2019-06-10T15:31:33.110Z,24.60
2019-06-10T15:34:02.916Z,24.50
2019-06-10T15:36:32.666Z,24.40
2019-06-10T15:39:02.395Z,24.40
2019-06-10T15:41:32.306Z,24.50
2019-06-10T15:44:02.561Z,24.40
2019-06-10T15:46:32.341Z,24.50
2019-06-10T15:49:02.384Z,24.40
2019-06-10T15:51:33.134Z,24.40
2019-06-10T15:54:02.626Z,24.40
2019-06-10T15:56:45.089Z,24.40
2019-06-10T15:59:02.894Z,24.40
2019-06-10T16:01:32.636Z,24.30
2019-06-10T16:04:01.448Z,24.40
2019-06-10T16:06:30.192Z,24.30
2019-06-10T16:08:58.903Z,24.30
2019-06-10T16:11:27.626Z,24.30
2019-06-10T16:13:56.388Z,24.30
2019-06-10T16:16:25.164Z,24.30
2019-06-10T16:18:53.893Z,24.30
2019-06-10T16:21:23.731Z,24.20
2019-06-10T16:23:53.305Z,24.10
2019-06-10T16:26:26.217Z,24.00
2019-06-10T16:28:52.724Z,23.90
2019-06-10T16:31:25.553Z,23.90
2019-06-10T16:33:52.737Z,23.80
2019-06-10T16:36:24.414Z,23.90
2019-06-10T16:38:52.847Z,23.80
2019-06-10T16:41:24.771Z,23.80
2019-06-10T16:43:52.307Z,23.70
2019-06-10T16:46:22.360Z,23.70
2019-06-10T16:48:52.776Z,23.70
2019-06-10T16:51:21.722Z,23.60
2019-06-10T16:53:52.831Z,23.50
2019-06-10T16:56:24.044Z,23.40
2019-06-10T16:58:52.339Z,23.40
2019-06-10T17:01:25.037Z,23.30
2019-06-10T17:03:52.507Z,23.30
2019-06-10T17:06:22.400Z,23.30
2019-06-10T17:08:52.241Z,23.30
2019-06-10T17:11:23.671Z,23.30
2019-06-10T17:13:52.656Z,23.20
2019-06-10T17:16:23.297Z,23.20
2019-06-10T17:18:51.905Z,23.10
2019-06-10T17:21:23.715Z,23.00
2019-06-10T17:23:52.407Z,23.00
2019-06-10T17:26:27.940Z,23.10
2019-06-10T17:28:52.196Z,23.00
2019-06-10T17:31:25.765Z,22.80
2019-06-10T17:33:53.115Z,22.50
2019-06-10T17:36:24.803Z,22.40
2019-06-10T17:38:52.438Z,22.20
2019-06-10T17:41:25.480Z,22.10
2019-06-10T17:43:52.097Z,22.10
2019-06-10T17:46:21.790Z,22.00
2019-06-10T17:48:52.139Z,21.90
2019-06-10T17:51:22.910Z,21.80
2019-06-10T17:53:53.097Z,21.80
2019-06-10T17:56:23.126Z,21.80
2019-06-10T17:58:57.731Z,21.90
2019-06-10T18:01:23.911Z,21.90
2019-06-10T18:03:53.079Z,21.90
2019-06-10T18:06:22.876Z,21.80
2019-06-10T18:08:52.674Z,21.90
2019-06-10T18:11:23.377Z,21.90
2019-06-10T18:13:51.963Z,21.90
2019-06-10T18:16:22.773Z,21.90
2019-06-10T18:18:52.466Z,21.80
2019-06-10T18:21:22.387Z,21.80
2019-06-10T18:23:52.904Z,21.70
2019-06-10T18:26:23.136Z,21.70
2019-06-10T18:29:01.971Z,21.60
2019-06-10T18:31:23.362Z,21.60
2019-06-10T18:33:53.084Z,21.60
2019-06-10T18:36:24.381Z,21.60
2019-06-10T18:38:52.731Z,21.50
2019-06-10T18:41:22.383Z,21.50
2019-06-10T18:43:51.265Z,21.40
2019-06-10T18:46:19.989Z,21.50
2019-06-10T18:48:48.766Z,21.50
2019-06-10T18:51:17.482Z,21.50
2019-06-10T18:53:46.221Z,21.50
2019-06-10T18:56:14.957Z,21.40
2019-06-10T18:58:43.736Z,21.40
2019-06-10T19:01:12.654Z,21.40
2019-06-10T19:03:42.968Z,21.30
2019-06-10T19:06:12.703Z,21.30
2019-06-10T19:08:44.160Z,21.30
2019-06-10T19:11:11.841Z,21.30
2019-06-10T19:13:43.324Z,21.30
2019-06-10T19:16:12.951Z,21.30
2019-06-10T19:18:43.194Z,21.30
2019-06-10T19:21:12.907Z,21.40
2019-06-10T19:23:43.894Z,21.40
2019-06-10T19:26:13.484Z,21.40
2019-06-10T19:28:45.206Z,21.40
2019-06-10T19:31:12.913Z,21.40
2019-06-10T19:33:45.250Z,21.40
2019-06-10T19:36:12.689Z,21.30
2019-06-10T19:38:44.100Z,21.30
2019-06-10T19:41:11.972Z,21.30
2019-06-10T19:43:41.626Z,21.40
2019-06-10T19:46:12.879Z,21.40
2019-06-10T19:48:49.570Z,21.50
2019-06-10T19:51:23.720Z,21.60
2019-06-10T19:53:52.769Z,21.50
2019-06-10T19:56:24.199Z,21.40
2019-06-10T19:58:52.940Z,21.40
2019-06-10T20:01:24.890Z,21.40
2019-06-10T20:03:53.324Z,21.30
2019-06-10T20:06:22.130Z,21.30
2019-06-10T20:08:52.297Z,21.30
2019-06-10T20:11:22.903Z,21.20
2019-06-10T20:13:53.091Z,21.20
2019-06-10T20:16:22.045Z,21.20
2019-06-10T20:18:53.397Z,21.30
2019-06-10T20:21:22.703Z,21.40
2019-06-10T20:23:52.990Z,21.40
2019-06-10T20:26:22.541Z,21.40
2019-06-10T20:28:54.826Z,21.40
2019-06-10T20:31:22.212Z,21.40
2019-06-10T20:33:52.361Z,21.40
2019-06-10T20:36:25.813Z,21.30
2019-06-10T20:38:53.500Z,21.40
2019-06-10T20:41:22.404Z,21.40
2019-06-10T20:43:52.609Z,21.40
2019-06-10T20:46:23.611Z,21.40
2019-06-10T20:48:54.418Z,21.40
2019-06-10T20:51:22.717Z,21.40
2019-06-10T20:53:53.301Z,21.40
2019-06-10T20:56:23.289Z,21.40
2019-06-10T20:58:52.528Z,21.40
2019-06-10T21:01:25.347Z,21.40
2019-06-10T21:03:53.977Z,21.30
2019-06-10T21:06:24.305Z,21.30
2019-06-10T21:08:54.903Z,21.20
2019-06-10T21:11:23.919Z,21.10
2019-06-10T21:13:55.524Z,21.10
2019-06-10T21:16:23.115Z,21.10
2019-06-10T21:18:55.497Z,21.00
2019-06-10T21:21:22.622Z,21.00
2019-06-10T21:23:53.929Z,21.00
2019-06-10T21:26:23.649Z,20.90
2019-06-10T21:28:55.091Z,20.80
2019-06-10T21:31:22.902Z,20.80
2019-06-10T21:33:55.404Z,20.70
2019-06-10T21:36:22.997Z,20.60
2019-06-10T21:38:55.355Z,20.60
2019-06-10T21:41:22.761Z,20.60
2019-06-10T21:43:58.907Z,20.50
2019-06-10T21:46:22.622Z,20.50
2019-06-10T21:48:53.200Z,20.60
2019-06-10T21:51:22.929Z,20.60
2019-06-10T21:53:53.755Z,20.70
2019-06-10T21:56:22.656Z,20.70
2019-06-10T21:58:53.643Z,20.70
2019-06-10T22:01:22.567Z,20.80
2019-06-10T22:04:00.205Z,20.80
2019-06-10T22:06:22.819Z,20.80
2019-06-10T22:08:54.454Z,20.70
2019-06-10T22:11:23.441Z,20.70
2019-06-10T22:13:54.232Z,20.80
2019-06-10T22:16:22.825Z,20.70
2019-06-10T22:18:52.593Z,20.70
2019-06-10T22:21:22.691Z,20.70
2019-06-10T22:23:55.206Z,20.70
2019-06-10T22:26:22.500Z,20.60
2019-06-10T22:28:54.134Z,20.60
2019-06-10T22:31:23.716Z,20.50
2019-06-10T22:33:55.504Z,20.60
2019-06-10T22:36:23.221Z,20.60
2019-06-10T22:38:55.811Z,20.60
2019-06-10T22:41:22.647Z,20.50
2019-06-10T22:43:53.965Z,20.60
2019-06-10T22:46:23.198Z,20.50
2019-06-10T22:48:53.447Z,20.50
2019-06-10T22:51:22.711Z,20.50
2019-06-10T22:53:54.835Z,20.50
2019-06-10T22:56:22.050Z,20.50
2019-06-10T22:58:53.956Z,20.50
2019-06-10T23:01:33.578Z,20.50
2019-06-10T23:03:52.170Z,20.50
2019-06-10T23:06:23.104Z,20.50
2019-06-10T23:08:54.758Z,20.40
2019-06-10T23:11:23.823Z,20.40
2019-06-10T23:13:53.843Z,20.40
2019-06-10T23:16:22.518Z,20.40
2019-06-10T23:18:53.615Z,20.30
2019-06-10T23:21:21.621Z,20.30
2019-06-10T23:23:53.627Z,20.30
2019-06-10T23:26:22.578Z,20.40
2019-06-10T23:28:54.098Z,20.30
2019-06-10T23:31:22.998Z,20.40
2019-06-10T23:33:55.976Z,20.30
2019-06-10T23:36:23.536Z,20.30
2019-06-10T23:38:52.825Z,20.40
2019-06-10T23:41:22.375Z,20.30
2019-06-10T23:43:51.274Z,20.40
2019-06-10T23:46:22.564Z,20.30
2019-06-10T23:48:51.470Z,20.30
2019-06-10T23:51:22.636Z,20.30
2019-06-10T23:53:53.830Z,20.20
2019-06-10T23:56:22.122Z,20.20
2019-06-10T23:58:52.864Z,20.20
